Carlsbad, NM

6:38 PM MDT on October 24, 2014 (GMT -0600)
Cavern City | Change Station
CLOSE
Current Station
Airport
Location: Carlsbad,
Elevation: 3294 ft
Nearby Weather Stations

Elev 3294 ft 32.33 °N, 104.26 °W | Updated 45 minutes ago

Clear
Clear
78 °F
Feels Like 78 °F
N
6
Wind Variable Wind from SE

Today
High -- | Low -- °F
--% Chance of Precip.
Yesterday
High -- | Low -- °F
Precip. -- in
7:07 AM 6:14 PM
New Moon, 1% visible
Pressure 29.98 in
Visibility 10.0 miles
Clouds Clear
Dew Point 57 °F
Humidity 48%
Rainfall 0.00 in
Snow Depth Not available.
UV 0 out of 12
Pollen 5.30 out of 12
Air Quality Not available.
Flu Activity Sporadic
METAR KCNM 242353Z AUTO 14005KT 10SM CLR 26/14 A3010 RMK AO2 SLP151 T02560139 10289 20233 56004

More Conditions Fewer Conditions

Pressure 29.98 in
Visibility 10.0 miles
Clouds Clear
Dew Point 57 °F
Humidity 48%
Rainfall 0.00 in
Snow Depth Not available.
UV 0 out of 12
Pollen 5.30 out of 12
Air Quality Not available.
Flu Activity Sporadic
METAR KCNM 242353Z AUTO 14005KT 10SM CLR 26/14 A3010 RMK AO2 SLP151 T02560139 10289 20233 56004

More Conditions Fewer Conditions

10-Day Weather Forecast

Almanac

Astronomy

Oct. 24, 2014 Rise Set
Actual Time 7:07 AM MDT 6:14 PM MDT
Civil Twilight 6:42 AM MDT 6:39 PM MDT
Nautical Twilight 6:13 AM MDT 7:08 PM MDT
Astronomical Twilight 5:45 AM MDT 7:36 PM MDT
Moon 7:47 AM MDT (10/24) 6:58 PM MDT (10/24)
Length of Visible Light 11h 56m
Length of Day
11h 06m
Tomorrow will be 1m 49s shorter.
New Moon, 1% of the Moon is Illuminated
Today
New Moon
Oct 30
First Quarter
Nov 6
Full
Nov 14
Last Quarter
Nov 22
New

Today's Extremes

State Highs State Lows

Community

WunderPhotos

Upload Photos

1,764,727 photos uploaded!

WunderBlogs® & News

Nearby

Snow Depth

Station Depth Elevation
McKnight Cabin 0 in 9240 ft
Elk Cabin 1 in 8210 ft
Silver Creek Divide 0 in 9000 ft
Gallegos Peak 0 in 9800 ft
Frisco Divide 0 in 8000 ft

Earthquake Activity

City Distance Mag. Time & Date
No recent earthquake activity has been reported nearby.
Minimum magnitude displayed is 2.5.

Coastal Water Temperatures

Place Temperature
No Stations Reporting

Nearby Weather Stations